Cocos Keeling Island Airport
YPCC : rendu visible

Aérodrome :











RETROUVEZ-NOUS SUR...

 
LOGIN :

S'inscrire | Disclaimer

   EN    FR    IT 

 









Légende :    VFR   VFR Marginal   IFR   IFR Intensif   IFR Très Intensif
Visi : 
Plafond : 
>= 8 km
>= 3000ft
5 à 8 km
1000 à 3000 ft
1500m à 5 km
500 à 1000 ft
800 à 1500m
200 à 500 ft
< 800m
< 200 ft
Symboles :   Orages  Brouillard  Fortes neiges  Fortes précipitations  Vent > 20 kt






- Altitude de l'aérodrome : 10 ft
- Code IATA : CCK


YPCC - Cocos Keeling Island

DERNIER METAR :
  • 172230Z AUTO 12015KT 9999 // SCT021 SCT031 BKN041 27/23 Q1012

METARs EXPIRÉS :
  • 172200Z AUTO 12014KT 9999 // SCT022 BKN029 BKN035 27/24 Q1012
  • 172130Z AUTO 11011KT 9999 // SCT022 SCT029 OVC042 27/23 Q1012
  • 172100Z AUTO 11011KT 9999 // SCT024 SCT031 BKN038 27/23 Q1012
  • 172030Z AUTO 11011KT 9999 // SCT023 SCT031 27/23 Q1012
  • 172000Z AUTO 11011KT 9999 // SCT023 BKN037 27/22 Q1012

TAF TAF YPCC
Valide du 17 à 18h jusqu'au 18 à 18h UTC


171704Z 1718/1818 11014KT 9999 SCT020 INTER 1718/1818 2000 SHRA BKN015
FIR YMMM / Asie



MET'MAP, la Météo Aéronautique d'un coup d'oeil ! - Copyright ORBIFLY Décembre 2007 - Disclaimer

ORBIFLY MET'MAP TEAM :

Programmation & Développement : Alexandra Zaïnal
Sur une idée originale de : Baudouin d'Aumeries
Assistance à la programmation : Marc-Olivier Méhu
Soutien technique & logistique : Manuel Goepfert

Contact : metmap@orbifly.com




SOURCES & CREDITS :

   NOAA       Earth
Advisory